createdAt,value
2023-04-27T00:01:15.567Z,3.38
2023-04-27T00:03:42.822Z,3.30
2023-04-27T00:06:09.931Z,3.20
2023-04-27T00:08:36.917Z,3.47
2023-04-27T00:11:04.076Z,3.20
2023-04-27T00:13:30.903Z,3.40
2023-04-27T00:15:57.757Z,3.58
2023-04-27T00:18:24.554Z,3.58
2023-04-27T00:20:51.526Z,3.30
2023-04-27T00:23:18.316Z,3.53
2023-04-27T00:25:45.082Z,3.70
2023-04-27T00:28:11.831Z,4.25
2023-04-27T00:30:38.625Z,4.50
2023-04-27T00:33:06.034Z,4.05
2023-04-27T00:35:33.671Z,4.15
2023-04-27T00:38:00.499Z,4.00
2023-04-27T00:40:27.310Z,3.85
2023-04-27T00:42:54.098Z,4.00
2023-04-27T00:45:21.195Z,3.70
2023-04-27T00:47:48.151Z,3.95
2023-04-27T00:50:16.385Z,3.67
2023-04-27T00:52:44.282Z,3.83
2023-04-27T00:55:11.799Z,3.60
2023-04-27T00:57:40.289Z,3.37
2023-04-27T01:00:07.770Z,3.60
2023-04-27T01:02:35.955Z,3.95
2023-04-27T01:05:03.642Z,3.50
2023-04-27T01:07:30.519Z,3.97
2023-04-27T01:09:58.247Z,3.65
2023-04-27T01:12:25.259Z,4.03
2023-04-27T01:14:52.139Z,3.42
2023-04-27T01:17:18.925Z,3.95
2023-04-27T01:19:46.069Z,3.88
2023-04-27T01:22:15.243Z,3.90
2023-04-27T01:24:42.086Z,3.40
2023-04-27T01:27:08.933Z,3.88
2023-04-27T01:29:37.215Z,4.25
2023-04-27T01:32:04.875Z,4.05
2023-04-27T01:34:31.945Z,3.65
2023-04-27T01:36:58.742Z,3.85
2023-04-27T01:39:25.808Z,3.78
2023-04-27T01:41:52.740Z,3.88
2023-04-27T01:44:21.175Z,3.58
2023-04-27T01:46:48.083Z,3.80
2023-04-27T01:49:15.377Z,3.85
2023-04-27T01:51:42.388Z,4.10
2023-04-27T01:54:09.107Z,4.00
2023-04-27T01:56:37.916Z,4.00
2023-04-27T01:59:04.670Z,3.78
2023-04-27T02:01:34.305Z,3.90
2023-04-27T02:04:01.246Z,3.47
2023-04-27T02:06:29.216Z,3.70
2023-04-27T02:08:56.033Z,3.92
2023-04-27T02:11:23.063Z,3.30
2023-04-27T02:13:50.841Z,3.50
2023-04-27T02:16:17.651Z,3.55
2023-04-27T02:18:44.712Z,4.20
2023-04-27T02:21:11.783Z,3.67
2023-04-27T02:23:38.660Z,4.20
2023-04-27T02:26:06.082Z,3.97
2023-04-27T02:28:32.833Z,4.00
2023-04-27T02:31:00.471Z,3.75
2023-04-27T02:33:27.221Z,4.43
2023-04-27T02:35:53.933Z,4.10
2023-04-27T02:38:21.302Z,4.30
2023-04-27T02:40:53.633Z,4.47
2023-04-27T02:43:20.744Z,5.07
2023-04-27T02:45:47.502Z,4.03
2023-04-27T02:48:14.532Z,4.30
2023-04-27T02:50:42.452Z,4.45
2023-04-27T02:53:10.469Z,4.30
2023-04-27T02:55:37.668Z,4.10
2023-04-27T02:58:04.898Z,4.28
2023-04-27T03:00:31.718Z,4.22
2023-04-27T03:02:58.503Z,4.53
2023-04-27T03:05:28.345Z,4.35
2023-04-27T03:07:55.241Z,4.10
2023-04-27T03:10:22.024Z,4.32
2023-04-27T03:12:48.830Z,4.07
2023-04-27T03:15:15.972Z,4.30
2023-04-27T03:17:42.690Z,4.63
2023-04-27T03:20:10.306Z,4.97
2023-04-27T03:22:37.273Z,4.68
2023-04-27T03:25:04.447Z,4.47
2023-04-27T03:27:32.316Z,4.07
2023-04-27T03:29:59.197Z,4.65
2023-04-27T03:32:26.099Z,4.30
2023-04-27T03:34:54.084Z,4.47
2023-04-27T03:37:20.895Z,4.22
2023-04-27T03:39:47.688Z,4.60
2023-04-27T03:42:14.787Z,4.03
2023-04-27T03:44:41.549Z,4.30
2023-04-27T03:47:09.854Z,4.88
2023-04-27T03:49:38.786Z,4.30
2023-04-27T03:52:06.914Z,4.22
2023-04-27T03:54:34.922Z,3.80
2023-04-27T03:57:02.730Z,4.35
2023-04-27T03:59:30.330Z,4.22
2023-04-27T04:01:59.534Z,4.85
2023-04-27T04:04:28.003Z,3.90
2023-04-27T04:06:54.946Z,3.80
2023-04-27T04:09:23.952Z,4.10
2023-04-27T04:11:52.635Z,5.07
2023-04-27T04:14:19.811Z,4.05
2023-04-27T04:16:46.863Z,3.97
2023-04-27T04:19:13.907Z,4.57
2023-04-27T04:21:41.585Z,3.97
2023-04-27T04:24:10.280Z,4.53
2023-04-27T04:26:38.641Z,4.30
2023-04-27T04:29:05.774Z,4.35
2023-04-27T04:31:33.817Z,5.53
2023-04-27T04:34:01.985Z,5.75
2023-04-27T04:36:29.052Z,6.00
2023-04-27T04:38:57.396Z,5.18
2023-04-27T04:41:25.636Z,7.80
2023-04-27T04:43:52.423Z,5.90
2023-04-27T04:46:20.083Z,5.70
2023-04-27T04:48:47.034Z,5.10
2023-04-27T04:51:14.223Z,5.30
2023-04-27T04:53:41.030Z,5.15
2023-04-27T04:56:13.098Z,5.82
2023-04-27T04:58:40.182Z,5.55
2023-04-27T05:01:07.095Z,5.63
2023-04-27T05:03:34.242Z,4.90
2023-04-27T05:06:01.150Z,4.90
2023-04-27T05:08:27.945Z,4.45
2023-04-27T05:10:54.988Z,4.03
2023-04-27T05:13:22.102Z,4.70
2023-04-27T05:15:48.862Z,4.10
2023-04-27T05:18:15.787Z,4.07
2023-04-27T05:20:42.580Z,4.28
2023-04-27T05:23:09.459Z,6.13
2023-04-27T05:25:41.859Z,5.70
2023-04-27T05:28:09.937Z,5.55
2023-04-27T05:30:37.002Z,5.28
2023-04-27T05:33:04.599Z,5.07
2023-04-27T05:35:32.610Z,5.28
2023-04-27T05:37:59.758Z,4.57
2023-04-27T05:40:26.643Z,4.55
2023-04-27T05:42:53.875Z,4.30
2023-04-27T05:45:22.039Z,4.38
2023-04-27T05:47:49.017Z,4.60
2023-04-27T05:50:15.916Z,7.25
2023-04-27T05:52:42.718Z,7.93
2023-04-27T05:55:09.693Z,5.10
2023-04-27T05:57:36.404Z,5.25
2023-04-27T06:00:08.956Z,4.85
2023-04-27T06:02:39.244Z,4.78
2023-04-27T06:05:11.922Z,4.88
2023-04-27T06:07:43.858Z,5.10
2023-04-27T06:10:11.781Z,5.40
2023-04-27T06:12:38.907Z,4.55
2023-04-27T06:15:08.756Z,4.75
2023-04-27T06:17:39.655Z,4.75
2023-04-27T06:20:07.402Z,4.20
2023-04-27T06:22:34.334Z,4.80
2023-04-27T06:25:01.218Z,3.95
2023-04-27T06:27:27.946Z,4.63
2023-04-27T06:29:54.840Z,4.60
2023-04-27T06:32:21.801Z,4.20
2023-04-27T06:34:49.831Z,4.30
2023-04-27T06:37:17.387Z,4.70
2023-04-27T06:39:44.886Z,4.97
2023-04-27T06:42:11.866Z,4.55
2023-04-27T06:44:39.054Z,4.57
2023-04-27T06:47:05.941Z,4.70
2023-04-27T06:49:32.641Z,4.80
2023-04-27T06:52:02.931Z,4.70
2023-04-27T06:54:29.851Z,4.40
2023-04-27T06:56:56.521Z,4.32
2023-04-27T06:59:23.422Z,4.10
2023-04-27T07:01:50.195Z,5.07
2023-04-27T07:04:17.249Z,4.43
2023-04-27T07:06:44.032Z,4.05
2023-04-27T07:09:26.033Z,4.18
2023-04-27T07:11:54.388Z,4.10
2023-04-27T07:14:21.578Z,3.53
2023-04-27T07:16:48.484Z,3.30
2023-04-27T07:19:15.555Z,3.28
2023-04-27T07:21:42.635Z,3.40
2023-04-27T07:24:09.373Z,3.55
2023-04-27T07:26:37.049Z,3.40
2023-04-27T07:29:11.057Z,3.00
2023-04-27T07:31:41.738Z,3.05
2023-04-27T07:34:08.759Z,3.72
2023-04-27T07:36:35.488Z,3.15
2023-04-27T07:39:02.392Z,3.17
2023-04-27T07:41:29.127Z,3.00
2023-04-27T07:43:55.910Z,2.90
2023-04-27T07:46:22.735Z,2.70
2023-04-27T07:48:50.369Z,2.70
2023-04-27T07:51:17.681Z,2.30
2023-04-27T07:53:46.020Z,2.60
2023-04-27T07:56:14.425Z,2.25
2023-04-27T07:58:41.144Z,1.95
2023-04-27T08:01:07.830Z,2.17
2023-04-27T08:03:35.100Z,1.92
2023-04-27T08:06:02.410Z,1.52
2023-04-27T08:08:29.609Z,2.00
2023-04-27T08:10:56.471Z,1.67
2023-04-27T08:13:24.802Z,1.63
2023-04-27T08:15:58.352Z,1.40
2023-04-27T08:18:27.321Z,1.70
2023-04-27T08:20:54.622Z,1.70
2023-04-27T08:23:21.657Z,1.55
2023-04-27T08:25:48.685Z,1.30
2023-04-27T08:28:16.002Z,1.30
2023-04-27T08:30:43.023Z,1.38
2023-04-27T08:33:09.989Z,1.17
2023-04-27T08:35:36.849Z,1.10
2023-04-27T08:38:03.574Z,1.23
2023-04-27T08:40:30.758Z,1.73
2023-04-27T08:42:59.449Z,1.35
2023-04-27T08:45:27.705Z,1.58
2023-04-27T08:47:54.464Z,1.23
2023-04-27T08:50:21.632Z,1.70
2023-04-27T08:52:49.620Z,1.20
2023-04-27T08:55:16.827Z,1.30
2023-04-27T08:57:54.895Z,1.45
2023-04-27T09:00:21.968Z,1.10
2023-04-27T09:02:49.506Z,1.10
2023-04-27T09:05:21.894Z,1.25
2023-04-27T09:07:57.952Z,1.35
2023-04-27T09:10:25.010Z,1.40
2023-04-27T09:13:01.250Z,1.48
2023-04-27T09:15:31.914Z,1.17
2023-04-27T09:17:58.969Z,1.55
2023-04-27T09:20:27.344Z,1.20
2023-04-27T09:22:55.770Z,1.25
2023-04-27T09:25:32.734Z,1.20
2023-04-27T09:28:01.333Z,1.73
2023-04-27T09:30:29.439Z,1.63
2023-04-27T09:33:01.170Z,1.63
2023-04-27T09:35:31.609Z,1.55
2023-04-27T09:37:59.336Z,1.42
2023-04-27T09:40:29.719Z,1.55
2023-04-27T09:42:58.707Z,1.35
2023-04-27T09:45:25.885Z,1.50
2023-04-27T09:47:53.274Z,1.40
2023-04-27T09:50:21.782Z,2.08
2023-04-27T09:52:48.632Z,1.30
2023-04-27T09:55:28.564Z,1.23
2023-04-27T10:00:48.919Z,1.42
2023-04-27T10:03:38.147Z,1.65
2023-04-27T10:06:17.207Z,1.30
2023-04-27T10:08:45.509Z,1.40
2023-04-27T10:11:17.207Z,1.70
2023-04-27T10:13:54.839Z,1.30
2023-04-27T10:16:22.859Z,1.30
2023-04-27T10:18:55.421Z,1.58
2023-04-27T10:21:22.715Z,1.60
2023-04-27T10:23:51.860Z,1.60
2023-04-27T10:26:24.025Z,1.40
2023-04-27T10:29:10.195Z,1.60
2023-04-27T10:31:44.096Z,1.70
2023-04-27T10:34:15.920Z,1.45
2023-04-27T10:36:42.740Z,1.40
2023-04-27T10:39:39.556Z,1.63
2023-04-27T10:42:11.584Z,1.80
2023-04-27T10:44:38.894Z,1.55
2023-04-27T10:47:22.223Z,1.55
2023-04-27T10:49:53.630Z,1.50
2023-04-27T10:52:20.649Z,1.70
2023-04-27T10:54:47.398Z,1.80
2023-04-27T10:57:14.457Z,2.03
2023-04-27T10:59:51.330Z,1.80
2023-04-27T11:02:25.964Z,2.00
2023-04-27T11:04:52.921Z,1.70
2023-04-27T11:07:28.157Z,2.20
2023-04-27T11:09:55.771Z,1.90
2023-04-27T11:12:22.595Z,1.80
2023-04-27T11:14:49.347Z,1.90
2023-04-27T11:17:16.188Z,1.80
2023-04-27T11:19:47.510Z,1.80
2023-04-27T11:22:18.108Z,1.77
2023-04-27T11:24:51.911Z,1.90
2023-04-27T11:27:22.110Z,1.80
2023-04-27T11:29:48.970Z,1.58
2023-04-27T11:32:23.424Z,1.63
2023-04-27T11:34:53.769Z,1.70
2023-04-27T11:37:25.927Z,1.50
2023-04-27T11:39:57.623Z,1.58
2023-04-27T11:42:28.327Z,2.03
2023-04-27T11:44:55.542Z,1.92
2023-04-27T11:47:23.107Z,1.60
2023-04-27T11:49:52.584Z,1.75
2023-04-27T11:52:19.413Z,1.70
2023-04-27T11:54:56.368Z,1.83
2023-04-27T11:57:30.009Z,1.50
2023-04-27T12:00:00.230Z,1.52
2023-04-27T12:02:29.270Z,1.90
2023-04-27T12:04:56.448Z,1.60
2023-04-27T12:07:23.571Z,1.73
2023-04-27T12:09:50.237Z,1.60
2023-04-27T12:12:18.430Z,1.70
2023-04-27T12:14:46.115Z,2.25
2023-04-27T12:17:13.238Z,9.20
2023-04-27T12:19:40.168Z,2.55
2023-04-27T12:22:07.164Z,2.22
2023-04-27T12:24:34.112Z,6.85
2023-04-27T12:27:01.435Z,1.90
2023-04-27T12:29:28.218Z,1.85
2023-04-27T12:31:55.779Z,1.80
2023-04-27T12:34:22.579Z,1.60
2023-04-27T12:36:49.409Z,1.55
2023-04-27T12:39:21.927Z,1.83
2023-04-27T12:41:49.804Z,1.98
2023-04-27T12:44:18.610Z,1.60
2023-04-27T12:46:46.390Z,1.40
2023-04-27T12:49:13.335Z,1.60
2023-04-27T12:51:40.334Z,1.63
2023-04-27T12:54:09.030Z,1.67
2023-04-27T12:56:35.938Z,1.65
2023-04-27T12:59:02.659Z,1.63
2023-04-27T13:01:31.245Z,1.35
2023-04-27T13:04:02.602Z,1.70
2023-04-27T13:06:31.348Z,1.73
2023-04-27T13:08:58.892Z,1.98
2023-04-27T13:11:26.536Z,1.73
2023-04-27T13:13:55.036Z,1.60
2023-04-27T13:16:25.216Z,1.60
2023-04-27T13:18:53.330Z,1.70
2023-04-27T13:21:20.484Z,1.90
2023-04-27T13:23:48.026Z,1.92
2023-04-27T13:26:15.802Z,1.13
2023-04-27T13:28:43.060Z,1.60
2023-04-27T13:31:11.033Z,1.63
2023-04-27T13:33:42.632Z,1.90
2023-04-27T13:36:10.843Z,1.50
2023-04-27T13:38:37.570Z,2.35
2023-04-27T13:41:05.021Z,1.52
2023-04-27T13:43:31.877Z,1.33
2023-04-27T13:46:01.077Z,1.60
2023-04-27T13:48:28.838Z,1.60
2023-04-27T13:50:55.917Z,1.40
2023-04-27T13:53:26.156Z,1.77
2023-04-27T13:55:57.140Z,1.15
2023-04-27T13:58:25.988Z,1.60
2023-04-27T14:00:53.815Z,1.50
2023-04-27T14:03:21.633Z,1.50
2023-04-27T14:05:50.921Z,1.70
2023-04-27T14:11:00.701Z,2.00
2023-04-27T14:13:27.483Z,1.63
2023-04-27T14:15:54.438Z,1.60
2023-04-27T14:18:27.381Z,1.60
2023-04-27T14:20:58.762Z,1.48
2023-04-27T14:23:25.513Z,1.65
2023-04-27T14:25:52.209Z,1.52
2023-04-27T14:28:18.916Z,1.50
2023-04-27T14:30:45.694Z,1.52
2023-04-27T14:33:12.480Z,1.80
2023-04-27T14:35:39.234Z,1.20
2023-04-27T14:38:06.245Z,1.48
2023-04-27T14:40:33.132Z,1.40
2023-04-27T14:43:00.119Z,1.60
2023-04-27T14:45:33.533Z,1.42
2023-04-27T14:48:06.952Z,1.52
2023-04-27T14:50:33.792Z,1.50
2023-04-27T14:53:00.672Z,1.60
2023-04-27T14:55:27.703Z,1.55
2023-04-27T14:57:54.482Z,1.55
2023-04-27T15:00:23.770Z,1.40
2023-04-27T15:02:54.941Z,1.48
2023-04-27T15:05:21.853Z,1.60
2023-04-27T15:07:49.893Z,1.35
2023-04-27T15:10:16.763Z,1.70
2023-04-27T15:12:43.565Z,1.58
2023-04-27T15:15:13.664Z,1.30
2023-04-27T15:17:40.443Z,1.67
2023-04-27T15:20:08.114Z,1.80
2023-04-27T15:22:34.856Z,1.52
2023-04-27T15:25:01.593Z,1.70
2023-04-27T15:27:28.304Z,1.80
2023-04-27T15:29:55.338Z,1.50
2023-04-27T15:32:29.863Z,1.40
2023-04-27T15:35:00.145Z,1.40
2023-04-27T15:37:28.534Z,1.73
2023-04-27T15:39:56.109Z,1.33
2023-04-27T15:42:23.709Z,1.75
2023-04-27T15:44:50.967Z,1.73
2023-04-27T15:47:17.666Z,1.27
2023-04-27T15:49:56.220Z,1.42
2023-04-27T15:52:24.358Z,1.33
2023-04-27T15:54:51.116Z,1.23
2023-04-27T15:57:18.451Z,1.88
2023-04-27T15:59:45.187Z,1.63
2023-04-27T16:02:13.189Z,1.63
2023-04-27T16:04:39.946Z,1.50
2023-04-27T16:07:07.460Z,1.67
2023-04-27T16:09:34.431Z,1.70
2023-04-27T16:12:01.974Z,1.40
2023-04-27T16:14:28.699Z,2.03
2023-04-27T16:17:00.582Z,1.80
2023-04-27T16:19:27.437Z,1.50
2023-04-27T16:21:54.493Z,1.75
2023-04-27T16:24:21.849Z,1.40
2023-04-27T16:26:48.553Z,1.40
2023-04-27T16:29:15.490Z,1.45
2023-04-27T16:31:43.075Z,1.58
2023-04-27T16:34:09.902Z,1.70
2023-04-27T16:36:36.669Z,1.58
2023-04-27T16:39:05.140Z,1.20
2023-04-27T16:41:32.027Z,1.50
2023-04-27T16:43:59.098Z,1.40
2023-04-27T16:46:26.018Z,1.50
2023-04-27T16:48:52.821Z,1.70
2023-04-27T16:51:19.745Z,1.45
2023-04-27T16:53:46.681Z,1.30
2023-04-27T16:56:14.246Z,1.58
2023-04-27T16:58:41.135Z,1.50
2023-04-27T17:01:08.035Z,1.40
2023-04-27T17:03:36.164Z,1.30
2023-04-27T17:06:03.285Z,1.38
2023-04-27T17:08:30.094Z,1.40
2023-04-27T17:10:56.857Z,1.40
2023-04-27T17:13:23.733Z,1.60
2023-04-27T17:15:51.787Z,1.60
2023-04-27T17:18:18.583Z,1.70
2023-04-27T17:20:45.313Z,1.38
2023-04-27T17:23:12.025Z,1.30
2023-04-27T17:25:38.780Z,1.30
2023-04-27T17:28:05.512Z,1.58
2023-04-27T17:30:32.251Z,1.63
2023-04-27T17:32:58.980Z,1.75
2023-04-27T17:35:26.748Z,1.60
2023-04-27T17:37:53.597Z,1.55
2023-04-27T17:40:21.078Z,1.65
2023-04-27T17:42:48.052Z,1.52
2023-04-27T17:45:15.732Z,2.10
2023-04-27T17:47:42.782Z,2.25
2023-04-27T17:50:09.895Z,2.30
2023-04-27T17:52:36.750Z,2.10
2023-04-27T17:55:03.684Z,2.03
2023-04-27T17:57:30.402Z,1.77
2023-04-27T17:59:57.205Z,1.98
2023-04-27T18:02:23.972Z,2.30
2023-04-27T18:04:50.875Z,1.80
2023-04-27T18:07:19.314Z,2.20
2023-04-27T18:09:46.085Z,1.92
2023-04-27T18:12:12.795Z,1.83
2023-04-27T18:14:39.840Z,2.15
2023-04-27T18:17:06.643Z,2.25
2023-04-27T18:19:33.436Z,2.25
2023-04-27T18:22:00.131Z,2.30
2023-04-27T18:24:26.843Z,2.20
2023-04-27T18:26:53.614Z,2.60
2023-04-27T18:29:20.625Z,2.75
2023-04-27T18:31:47.616Z,2.72
2023-04-27T18:34:14.463Z,2.60
2023-04-27T18:36:41.251Z,3.15
2023-04-27T18:39:08.006Z,2.53
2023-04-27T18:41:34.766Z,2.58
2023-04-27T18:44:05.873Z,3.58
2023-04-27T18:46:33.016Z,2.63
2023-04-27T18:49:00.982Z,3.10
2023-04-27T18:51:29.165Z,2.70
2023-04-27T18:53:56.416Z,2.50
2023-04-27T18:56:23.425Z,3.08
2023-04-27T18:58:50.246Z,3.00
2023-04-27T19:01:25.416Z,3.00
2023-04-27T19:03:53.503Z,3.05
2023-04-27T19:06:21.209Z,2.53
2023-04-27T19:08:48.435Z,2.83
2023-04-27T19:11:15.253Z,2.50
2023-04-27T19:13:44.031Z,2.30
2023-04-27T19:16:11.873Z,2.55
2023-04-27T19:18:40.453Z,2.35
2023-04-27T19:21:09.912Z,2.38
2023-04-27T19:23:36.971Z,2.40
2023-04-27T19:26:12.515Z,2.25
2023-04-27T19:28:40.680Z,2.70
2023-04-27T19:31:07.781Z,2.67
2023-04-27T19:33:34.622Z,2.60
2023-04-27T19:36:01.312Z,2.63
2023-04-27T19:38:28.042Z,2.30
2023-04-27T19:40:54.772Z,2.22
2023-04-27T19:43:21.618Z,2.88
2023-04-27T19:45:51.647Z,3.45
2023-04-27T19:48:18.506Z,3.45
2023-04-27T19:50:45.458Z,3.85
2023-04-27T19:53:12.616Z,3.20
2023-04-27T19:55:40.506Z,3.20
2023-04-27T19:58:07.391Z,2.42
2023-04-27T20:00:34.366Z,2.35
2023-04-27T20:03:01.380Z,2.40
2023-04-27T20:05:28.551Z,2.33
2023-04-27T20:07:55.477Z,2.25
2023-04-27T20:10:22.292Z,2.15
2023-04-27T20:12:56.494Z,2.25
2023-04-27T20:15:24.964Z,2.15
2023-04-27T20:17:52.991Z,2.20
2023-04-27T20:20:22.706Z,2.00
2023-04-27T20:22:49.596Z,2.13
2023-04-27T20:25:16.404Z,1.92
2023-04-27T20:27:43.198Z,2.38
2023-04-27T20:30:10.322Z,2.47
2023-04-27T20:32:39.473Z,2.40
2023-04-27T20:35:11.540Z,2.40
2023-04-27T20:37:39.913Z,2.40
2023-04-27T20:40:08.014Z,2.30
2023-04-27T20:42:36.041Z,2.50
2023-04-27T20:45:05.516Z,2.40
2023-04-27T20:47:32.281Z,2.38
2023-04-27T20:49:59.058Z,2.05
2023-04-27T20:52:27.972Z,2.75
2023-04-27T20:54:57.459Z,2.42
2023-04-27T20:57:24.209Z,2.75
2023-04-27T20:59:51.093Z,2.80
2023-04-27T21:02:17.835Z,2.55
2023-04-27T21:04:44.577Z,2.25
2023-04-27T21:07:11.382Z,2.15
2023-04-27T21:09:39.029Z,2.60
2023-04-27T21:12:06.589Z,2.60
2023-04-27T21:14:33.850Z,3.28
2023-04-27T21:17:00.917Z,3.00
2023-04-27T21:19:27.738Z,3.08
2023-04-27T21:21:54.404Z,3.45
2023-04-27T21:24:21.331Z,3.75
2023-04-27T21:26:48.547Z,3.45
2023-04-27T21:29:15.253Z,3.13
2023-04-27T21:31:42.039Z,3.80
2023-04-27T21:34:08.989Z,3.53
2023-04-27T21:36:35.744Z,3.17
2023-04-27T21:39:02.516Z,3.20
2023-04-27T21:41:29.285Z,3.47
2023-04-27T21:43:56.799Z,3.35
2023-04-27T21:46:24.140Z,3.65
2023-04-27T21:48:51.139Z,3.20
2023-04-27T21:51:18.147Z,3.22
2023-04-27T21:53:44.855Z,3.00
2023-04-27T21:56:11.795Z,3.10
2023-04-27T21:58:38.563Z,3.03
2023-04-27T22:01:05.267Z,2.97
2023-04-27T22:03:32.771Z,3.13
2023-04-27T22:05:59.670Z,3.22
2023-04-27T22:08:26.567Z,3.00
2023-04-27T22:10:53.334Z,3.22
2023-04-27T22:13:20.386Z,3.00
2023-04-27T22:15:48.282Z,3.45
2023-04-27T22:18:15.664Z,3.67
2023-04-27T22:20:42.934Z,3.20
2023-04-27T22:23:10.012Z,2.92
2023-04-27T22:25:37.057Z,2.78
2023-04-27T22:28:04.148Z,3.40
2023-04-27T22:30:31.291Z,2.95
2023-04-27T22:32:58.183Z,3.72
2023-04-27T22:35:27.693Z,3.50
2023-04-27T22:40:26.546Z,3.35
2023-04-27T22:42:55.164Z,3.70
2023-04-27T22:45:22.857Z,2.80
2023-04-27T22:47:49.755Z,3.15
2023-04-27T22:50:16.794Z,2.75
2023-04-27T22:52:43.724Z,2.80
2023-04-27T22:55:12.065Z,2.60
2023-04-27T22:57:39.872Z,2.90
2023-04-27T23:00:11.134Z,2.85
2023-04-27T23:02:39.589Z,2.33
2023-04-27T23:05:11.038Z,2.70
2023-04-27T23:07:40.961Z,2.72
2023-04-27T23:10:08.175Z,2.50
2023-04-27T23:12:35.204Z,2.95
2023-04-27T23:15:01.985Z,2.90
2023-04-27T23:17:31.748Z,2.30
2023-04-27T23:22:26.746Z,2.72
2023-04-27T23:24:54.031Z,2.78
2023-04-27T23:27:21.506Z,2.25
2023-04-27T23:29:48.257Z,2.67
2023-04-27T23:32:15.528Z,2.53
2023-04-27T23:34:42.242Z,2.80
2023-04-27T23:37:09.055Z,3.28
2023-04-27T23:39:35.837Z,3.50
2023-04-27T23:42:03.384Z,3.60
2023-04-27T23:44:30.493Z,3.85
2023-04-27T23:46:57.493Z,4.20
2023-04-27T23:49:24.269Z,3.50
2023-04-27T23:51:52.641Z,3.45
2023-04-27T23:54:19.523Z,3.38
2023-04-27T23:56:46.346Z,3.55
2023-04-27T23:59:14.998Z,3.05
